Terminal Aerodrome Forecast
Issued by NWS Shreveport, LA

Home | Current Version | Previous Version | Text Only | Print | Product List | Glossary On
Versions: 1 2 3 4 5 6 7 8 9 10 11 12 13 14 15 16 17 18
000
FTUS44 KSHV 242340
TAFGGG
TAF
KGGG 242340Z 2500/2524 14012KT P6SM BKN040
     FM250900 18010KT P6SM BKN015
      TEMPO 2511/2513 OVC007
     FM251500 17012KT P6SM SCT015 BKN250=

USA.gov is the U.S. government's official web portal to all federal, state and local government web resources and services.